sensor_id;sensor_type;location;lat;lon;timestamp;P1;durP1;ratioP1;P2;durP2;ratioP2
78508;SDS011;67802;50.846;7.958;2023-06-10T09:16:16;8.52;;;4.50;;
78508;SDS011;67802;50.846;7.958;2023-06-10T09:18:42;7.20;;;4.93;;
78508;SDS011;67802;50.846;7.958;2023-06-10T09:21:08;9.15;;;4.82;;
78508;SDS011;67802;50.846;7.958;2023-06-10T09:23:33;8.00;;;4.63;;
78508;SDS011;67802;50.846;7.958;2023-06-10T09:25:59;7.28;;;4.47;;
78508;SDS011;67802;50.846;7.958;2023-06-10T09:28:24;7.05;;;4.15;;
78508;SDS011;67802;50.846;7.958;2023-06-10T09:30:50;8.48;;;4.00;;
78508;SDS011;67802;50.846;7.958;2023-06-10T09:33:28;8.00;;;4.25;;
78508;SDS011;67802;50.846;7.958;2023-06-10T09:35:53;7.65;;;4.13;;
78508;SDS011;67802;50.846;7.958;2023-06-10T09:38:21;7.40;;;4.38;;
78508;SDS011;67802;50.846;7.958;2023-06-10T09:40:51;7.63;;;4.35;;
78508;SDS011;67802;50.846;7.958;2023-06-10T09:43:17;8.63;;;3.90;;
78508;SDS011;67802;50.846;7.958;2023-06-10T09:45:43;7.00;;;4.50;;
78508;SDS011;67802;50.846;7.958;2023-06-10T09:48:09;10.27;;;3.90;;
78508;SDS011;67802;50.846;7.958;2023-06-10T09:50:34;6.97;;;4.00;;
78508;SDS011;67802;50.846;7.958;2023-06-10T09:53:06;8.13;;;4.30;;
78508;SDS011;67802;50.846;7.958;2023-06-10T09:55:32;7.13;;;3.85;;
78508;SDS011;67802;50.846;7.958;2023-06-10T09:57:59;8.07;;;4.10;;
78508;SDS011;67802;50.846;7.958;2023-06-10T10:00:24;7.88;;;4.05;;
78508;SDS011;67802;50.846;7.958;2023-06-10T10:02:51;9.10;;;4.47;;
78508;SDS011;67802;50.846;7.958;2023-06-10T10:05:18;7.65;;;4.10;;
78508;SDS011;67802;50.846;7.958;2023-06-10T10:07:46;6.68;;;3.75;;
78508;SDS011;67802;50.846;7.958;2023-06-10T10:10:13;5.95;;;3.55;;
78508;SDS011;67802;50.846;7.958;2023-06-10T10:12:40;10.18;;;4.43;;
78508;SDS011;67802;50.846;7.958;2023-06-10T10:15:10;6.65;;;3.92;;
78508;SDS011;67802;50.846;7.958;2023-06-10T10:20:24;6.20;;;3.63;;
78508;SDS011;67802;50.846;7.958;2023-06-10T10:22:56;8.02;;;4.10;;
78508;SDS011;67802;50.846;7.958;2023-06-10T10:25:27;7.72;;;3.70;;
78508;SDS011;67802;50.846;7.958;2023-06-10T10:27:56;6.25;;;4.03;;
78508;SDS011;67802;50.846;7.958;2023-06-10T10:30:43;6.78;;;3.80;;
78508;SDS011;67802;50.846;7.958;2023-06-10T10:33:18;5.55;;;3.47;;
78508;SDS011;67802;50.846;7.958;2023-06-10T10:35:45;6.10;;;3.90;;
78508;SDS011;67802;50.846;7.958;2023-06-10T10:38:11;6.07;;;3.58;;
78508;SDS011;67802;50.846;7.958;2023-06-10T10:40:37;6.20;;;3.72;;
78508;SDS011;67802;50.846;7.958;2023-06-10T10:43:04;6.05;;;3.70;;
78508;SDS011;67802;50.846;7.958;2023-06-10T10:45:30;8.10;;;4.10;;
78508;SDS011;67802;50.846;7.958;2023-06-10T10:47:59;5.38;;;3.40;;
78508;SDS011;67802;50.846;7.958;2023-06-10T10:50:30;6.53;;;3.75;;
78508;SDS011;67802;50.846;7.958;2023-06-10T10:52:58;6.75;;;3.70;;
78508;SDS011;67802;50.846;7.958;2023-06-10T10:55:25;6.65;;;4.00;;
78508;SDS011;67802;50.846;7.958;2023-06-10T10:57:55;7.47;;;3.75;;
78508;SDS011;67802;50.846;7.958;2023-06-10T11:00:29;6.07;;;3.70;;
78508;SDS011;67802;50.846;7.958;2023-06-10T11:02:57;6.93;;;3.58;;
78508;SDS011;67802;50.846;7.958;2023-06-10T11:05:57;8.38;;;4.10;;
78508;SDS011;67802;50.846;7.958;2023-06-10T11:10:53;7.43;;;3.42;;
78508;SDS011;67802;50.846;7.958;2023-06-10T11:13:19;7.90;;;4.17;;
78508;SDS011;67802;50.846;7.958;2023-06-10T11:15:49;6.45;;;3.83;;
78508;SDS011;67802;50.846;7.958;2023-06-10T11:21:03;6.13;;;3.92;;
78508;SDS011;67802;50.846;7.958;2023-06-10T11:29:03;5.88;;;3.50;;
78508;SDS011;67802;50.846;7.958;2023-06-10T11:31:29;6.50;;;3.50;;
78508;SDS011;67802;50.846;7.958;2023-06-10T11:33:58;6.65;;;3.47;;
78508;SDS011;67802;50.846;7.958;2023-06-10T11:36:25;5.60;;;3.15;;
78508;SDS011;67802;50.846;7.958;2023-06-10T11:38:53;5.90;;;3.40;;
78508;SDS011;67802;50.846;7.958;2023-06-10T11:41:20;5.47;;;3.40;;
78508;SDS011;67802;50.846;7.958;2023-06-10T11:43:46;5.57;;;3.50;;
78508;SDS011;67802;50.846;7.958;2023-06-10T11:46:12;6.45;;;3.60;;
78508;SDS011;67802;50.846;7.958;2023-06-10T11:48:38;6.03;;;3.70;;
78508;SDS011;67802;50.846;7.958;2023-06-10T11:51:07;7.63;;;3.60;;
78508;SDS011;67802;50.846;7.958;2023-06-10T11:53:33;6.25;;;3.13;;
78508;SDS011;67802;50.846;7.958;2023-06-10T11:55:58;7.57;;;3.65;;
78508;SDS011;67802;50.846;7.958;2023-06-10T11:58:24;8.60;;;3.10;;
78508;SDS011;67802;50.846;7.958;2023-06-10T12:00:51;7.05;;;3.63;;
78508;SDS011;67802;50.846;7.958;2023-06-10T12:03:26;6.43;;;3.60;;
78508;SDS011;67802;50.846;7.958;2023-06-10T12:05:55;7.20;;;3.45;;
78508;SDS011;67802;50.846;7.958;2023-06-10T12:08:25;6.40;;;3.70;;
78508;SDS011;67802;50.846;7.958;2023-06-10T12:10:50;5.57;;;3.13;;
78508;SDS011;67802;50.846;7.958;2023-06-10T12:13:16;5.65;;;3.40;;
78508;SDS011;67802;50.846;7.958;2023-06-10T12:15:44;6.72;;;3.33;;
78508;SDS011;67802;50.846;7.958;2023-06-10T12:18:19;6.07;;;3.10;;
78508;SDS011;67802;50.846;7.958;2023-06-10T12:20:46;7.57;;;3.75;;
78508;SDS011;67802;50.846;7.958;2023-06-10T12:23:13;6.03;;;3.35;;
78508;SDS011;67802;50.846;7.958;2023-06-10T12:25:43;5.45;;;3.28;;
78508;SDS011;67802;50.846;7.958;2023-06-10T12:28:14;5.30;;;3.22;;
78508;SDS011;67802;50.846;7.958;2023-06-10T12:30:40;6.00;;;3.45;;
78508;SDS011;67802;50.846;7.958;2023-06-10T12:33:08;5.57;;;3.28;;
78508;SDS011;67802;50.846;7.958;2023-06-10T12:35:46;6.30;;;3.38;;
78508;SDS011;67802;50.846;7.958;2023-06-10T12:38:21;6.70;;;3.65;;
78508;SDS011;67802;50.846;7.958;2023-06-10T12:40:49;7.82;;;3.50;;
78508;SDS011;67802;50.846;7.958;2023-06-10T12:43:19;5.90;;;3.40;;
78508;SDS011;67802;50.846;7.958;2023-06-10T12:45:48;5.63;;;3.20;;
78508;SDS011;67802;50.846;7.958;2023-06-10T12:48:19;6.03;;;3.35;;
78508;SDS011;67802;50.846;7.958;2023-06-10T12:50:51;6.30;;;3.53;;
78508;SDS011;67802;50.846;7.958;2023-06-10T12:53:18;5.40;;;3.20;;
78508;SDS011;67802;50.846;7.958;2023-06-10T12:55:44;5.30;;;3.13;;
78508;SDS011;67802;50.846;7.958;2023-06-10T12:58:11;6.25;;;3.38;;
78508;SDS011;67802;50.846;7.958;2023-06-10T13:00:37;5.95;;;3.53;;
78508;SDS011;67802;50.846;7.958;2023-06-10T13:03:03;5.47;;;3.28;;
78508;SDS011;67802;50.846;7.958;2023-06-10T13:05:30;5.30;;;3.45;;
78508;SDS011;67802;50.846;7.958;2023-06-10T13:07:56;5.28;;;3.05;;
78508;SDS011;67802;50.846;7.958;2023-06-10T13:10:22;5.65;;;2.95;;
78508;SDS011;67802;50.846;7.958;2023-06-10T13:12:48;5.22;;;3.20;;
78508;SDS011;67802;50.846;7.958;2023-06-10T13:15:14;6.00;;;3.00;;
78508;SDS011;67802;50.846;7.958;2023-06-10T13:17:40;6.07;;;3.50;;
78508;SDS011;67802;50.846;7.958;2023-06-10T13:20:06;4.82;;;3.08;;
78508;SDS011;67802;50.846;7.958;2023-06-10T13:22:33;6.10;;;3.55;;
78508;SDS011;67802;50.846;7.958;2023-06-10T13:25:00;4.82;;;2.90;;
78508;SDS011;67802;50.846;7.958;2023-06-10T13:27:26;5.82;;;3.20;;
78508;SDS011;67802;50.846;7.958;2023-06-10T13:29:52;5.18;;;3.35;;
78508;SDS011;67802;50.846;7.958;2023-06-10T13:32:17;6.40;;;3.33;;
78508;SDS011;67802;50.846;7.958;2023-06-10T13:34:43;5.63;;;3.22;;
78508;SDS011;67802;50.846;7.958;2023-06-10T13:37:08;5.47;;;3.15;;
78508;SDS011;67802;50.846;7.958;2023-06-10T13:39:33;5.70;;;3.20;;
78508;SDS011;67802;50.846;7.958;2023-06-10T13:41:58;6.38;;;3.60;;
78508;SDS011;67802;50.846;7.958;2023-06-10T13:44:24;4.68;;;3.03;;
78508;SDS011;67802;50.846;7.958;2023-06-10T13:46:49;5.57;;;3.10;;
78508;SDS011;67802;50.846;7.958;2023-06-10T13:49:14;5.00;;;2.90;;
78508;SDS011;67802;50.846;7.958;2023-06-10T13:51:40;6.77;;;3.20;;
78508;SDS011;67802;50.846;7.958;2023-06-10T13:54:05;6.32;;;3.22;;
78508;SDS011;67802;50.846;7.958;2023-06-10T13:56:30;5.38;;;3.30;;
78508;SDS011;67802;50.846;7.958;2023-06-10T13:58:56;5.55;;;3.35;;
78508;SDS011;67802;50.846;7.958;2023-06-10T14:01:21;6.45;;;3.28;;
78508;SDS011;67802;50.846;7.958;2023-06-10T14:03:47;7.35;;;3.38;;
78508;SDS011;67802;50.846;7.958;2023-06-10T14:06:12;5.93;;;3.40;;
78508;SDS011;67802;50.846;7.958;2023-06-10T14:08:43;6.20;;;3.55;;
78508;SDS011;67802;50.846;7.958;2023-06-10T14:11:09;5.00;;;2.80;;
78508;SDS011;67802;50.846;7.958;2023-06-10T14:13:34;5.53;;;3.08;;
78508;SDS011;67802;50.846;7.958;2023-06-10T14:16:00;5.25;;;3.17;;
78508;SDS011;67802;50.846;7.958;2023-06-10T14:18:27;5.20;;;2.97;;
78508;SDS011;67802;50.846;7.958;2023-06-10T14:20:53;5.63;;;3.38;;
78508;SDS011;67802;50.846;7.958;2023-06-10T14:23:18;5.50;;;2.83;;
78508;SDS011;67802;50.846;7.958;2023-06-10T14:25:44;5.63;;;3.20;;
78508;SDS011;67802;50.846;7.958;2023-06-10T14:28:09;7.05;;;3.05;;
78508;SDS011;67802;50.846;7.958;2023-06-10T14:30:34;5.80;;;3.15;;
78508;SDS011;67802;50.846;7.958;2023-06-10T14:33:00;9.23;;;3.45;;
78508;SDS011;67802;50.846;7.958;2023-06-10T14:35:25;6.87;;;3.43;;
78508;SDS011;67802;50.846;7.958;2023-06-10T14:37:50;6.30;;;3.00;;
78508;SDS011;67802;50.846;7.958;2023-06-10T14:40:16;7.05;;;3.30;;
78508;SDS011;67802;50.846;7.958;2023-06-10T14:42:41;6.45;;;3.28;;
78508;SDS011;67802;50.846;7.958;2023-06-10T14:45:06;4.97;;;2.97;;
78508;SDS011;67802;50.846;7.958;2023-06-10T14:47:32;5.68;;;3.28;;
78508;SDS011;67802;50.846;7.958;2023-06-10T14:49:58;5.40;;;3.50;;
78508;SDS011;67802;50.846;7.958;2023-06-10T14:52:23;6.05;;;3.55;;
78508;SDS011;67802;50.846;7.958;2023-06-10T14:54:48;7.90;;;3.40;;
78508;SDS011;67802;50.846;7.958;2023-06-10T14:57:14;5.70;;;3.30;;
78508;SDS011;67802;50.846;7.958;2023-06-10T14:59:39;6.65;;;3.20;;
78508;SDS011;67802;50.846;7.958;2023-06-10T15:02:05;6.45;;;3.25;;
78508;SDS011;67802;50.846;7.958;2023-06-10T15:04:30;5.55;;;3.20;;
78508;SDS011;67802;50.846;7.958;2023-06-10T15:06:56;6.38;;;3.25;;
78508;SDS011;67802;50.846;7.958;2023-06-10T15:09:21;5.00;;;3.10;;
78508;SDS011;67802;50.846;7.958;2023-06-10T15:11:46;5.35;;;2.95;;
78508;SDS011;67802;50.846;7.958;2023-06-10T15:14:12;5.10;;;2.97;;
78508;SDS011;67802;50.846;7.958;2023-06-10T15:16:37;6.13;;;3.03;;
78508;SDS011;67802;50.846;7.958;2023-06-10T15:19:02;6.47;;;3.23;;
78508;SDS011;67802;50.846;7.958;2023-06-10T15:21:28;6.28;;;3.30;;
78508;SDS011;67802;50.846;7.958;2023-06-10T15:23:53;6.57;;;3.22;;
78508;SDS011;67802;50.846;7.958;2023-06-10T15:26:18;7.60;;;3.00;;
78508;SDS011;67802;50.846;7.958;2023-06-10T15:28:44;6.85;;;3.33;;
78508;SDS011;67802;50.846;7.958;2023-06-10T15:31:10;5.47;;;3.30;;
78508;SDS011;67802;50.846;7.958;2023-06-10T15:33:35;5.53;;;3.17;;
78508;SDS011;67802;50.846;7.958;2023-06-10T15:36:00;4.95;;;3.10;;
78508;SDS011;67802;50.846;7.958;2023-06-10T15:38:26;5.88;;;3.13;;
78508;SDS011;67802;50.846;7.958;2023-06-10T15:40:51;5.20;;;3.22;;
78508;SDS011;67802;50.846;7.958;2023-06-10T15:43:18;5.25;;;2.88;;
78508;SDS011;67802;50.846;7.958;2023-06-10T15:45:44;5.93;;;3.58;;
78508;SDS011;67802;50.846;7.958;2023-06-10T15:48:09;4.97;;;3.20;;
78508;SDS011;67802;50.846;7.958;2023-06-10T15:50:34;5.93;;;3.58;;
78508;SDS011;67802;50.846;7.958;2023-06-10T15:53:00;5.35;;;3.20;;
78508;SDS011;67802;50.846;7.958;2023-06-10T15:55:25;5.93;;;3.08;;
78508;SDS011;67802;50.846;7.958;2023-06-10T15:57:51;6.70;;;3.50;;
78508;SDS011;67802;50.846;7.958;2023-06-10T16:00:16;6.13;;;3.03;;
78508;SDS011;67802;50.846;7.958;2023-06-10T16:02:42;6.38;;;3.13;;
78508;SDS011;67802;50.846;7.958;2023-06-10T16:05:07;6.05;;;3.22;;
78508;SDS011;67802;50.846;7.958;2023-06-10T16:07:33;6.18;;;3.03;;
78508;SDS011;67802;50.846;7.958;2023-06-10T16:09:58;5.80;;;2.97;;
78508;SDS011;67802;50.846;7.958;2023-06-10T16:12:23;7.93;;;3.33;;
78508;SDS011;67802;50.846;7.958;2023-06-10T16:14:49;6.85;;;3.63;;
78508;SDS011;67802;50.846;7.958;2023-06-10T16:17:14;9.43;;;3.17;;
78508;SDS011;67802;50.846;7.958;2023-06-10T16:19:39;5.60;;;3.03;;
78508;SDS011;67802;50.846;7.958;2023-06-10T16:22:05;5.93;;;3.40;;
78508;SDS011;67802;50.846;7.958;2023-06-10T16:24:30;5.82;;;3.35;;
78508;SDS011;67802;50.846;7.958;2023-06-10T16:26:55;5.07;;;3.03;;
78508;SDS011;67802;50.846;7.958;2023-06-10T16:29:20;5.80;;;3.60;;
78508;SDS011;67802;50.846;7.958;2023-06-10T16:31:46;5.40;;;3.30;;
78508;SDS011;67802;50.846;7.958;2023-06-10T16:34:13;5.82;;;3.33;;
78508;SDS011;67802;50.846;7.958;2023-06-10T16:36:38;6.20;;;3.08;;
78508;SDS011;67802;50.846;7.958;2023-06-10T16:39:04;5.20;;;3.00;;
78508;SDS011;67802;50.846;7.958;2023-06-10T16:41:29;5.63;;;3.20;;
78508;SDS011;67802;50.846;7.958;2023-06-10T16:43:54;5.00;;;3.20;;
78508;SDS011;67802;50.846;7.958;2023-06-10T16:46:20;8.70;;;3.50;;
78508;SDS011;67802;50.846;7.958;2023-06-10T16:48:46;5.53;;;3.22;;
78508;SDS011;67802;50.846;7.958;2023-06-10T16:51:12;6.53;;;3.20;;
78508;SDS011;67802;50.846;7.958;2023-06-10T16:53:37;6.68;;;3.25;;
78508;SDS011;67802;50.846;7.958;2023-06-10T16:56:02;5.22;;;3.10;;
78508;SDS011;67802;50.846;7.958;2023-06-10T16:58:28;6.47;;;3.33;;
78508;SDS011;67802;50.846;7.958;2023-06-10T17:00:54;5.45;;;3.10;;
78508;SDS011;67802;50.846;7.958;2023-06-10T17:03:26;5.75;;;3.47;;
78508;SDS011;67802;50.846;7.958;2023-06-10T17:05:51;5.47;;;3.45;;
78508;SDS011;67802;50.846;7.958;2023-06-10T17:08:17;5.30;;;3.23;;
78508;SDS011;67802;50.846;7.958;2023-06-10T17:10:42;5.65;;;3.30;;
78508;SDS011;67802;50.846;7.958;2023-06-10T17:13:08;6.00;;;3.38;;
78508;SDS011;67802;50.846;7.958;2023-06-10T17:15:33;6.10;;;3.33;;
78508;SDS011;67802;50.846;7.958;2023-06-10T17:17:59;6.00;;;3.15;;
78508;SDS011;67802;50.846;7.958;2023-06-10T17:20:24;6.22;;;3.35;;
78508;SDS011;67802;50.846;7.958;2023-06-10T17:22:51;5.15;;;2.95;;
78508;SDS011;67802;50.846;7.958;2023-06-10T17:25:17;6.97;;;3.53;;
78508;SDS011;67802;50.846;7.958;2023-06-10T17:27:42;5.43;;;3.00;;
78508;SDS011;67802;50.846;7.958;2023-06-10T17:30:07;5.18;;;3.10;;
78508;SDS011;67802;50.846;7.958;2023-06-10T17:32:33;6.18;;;3.40;;
78508;SDS011;67802;50.846;7.958;2023-06-10T17:34:58;7.68;;;3.20;;
78508;SDS011;67802;50.846;7.958;2023-06-10T17:37:24;5.47;;;3.13;;
78508;SDS011;67802;50.846;7.958;2023-06-10T17:39:49;7.53;;;3.58;;
78508;SDS011;67802;50.846;7.958;2023-06-10T17:42:14;5.20;;;3.20;;
78508;SDS011;67802;50.846;7.958;2023-06-10T17:44:39;6.07;;;3.30;;
78508;SDS011;67802;50.846;7.958;2023-06-10T17:47:05;5.55;;;3.33;;
78508;SDS011;67802;50.846;7.958;2023-06-10T17:49:30;5.43;;;3.10;;
78508;SDS011;67802;50.846;7.958;2023-06-10T17:51:55;6.53;;;3.60;;
78508;SDS011;67802;50.846;7.958;2023-06-10T17:54:21;10.23;;;3.67;;
78508;SDS011;67802;50.846;7.958;2023-06-10T17:56:46;6.60;;;3.63;;
78508;SDS011;67802;50.846;7.958;2023-06-10T17:59:11;5.50;;;3.15;;
78508;SDS011;67802;50.846;7.958;2023-06-10T18:01:37;5.28;;;3.45;;
78508;SDS011;67802;50.846;7.958;2023-06-10T18:04:03;8.07;;;3.42;;
78508;SDS011;67802;50.846;7.958;2023-06-10T18:06:32;6.63;;;3.38;;
78508;SDS011;67802;50.846;7.958;2023-06-10T18:08:57;8.15;;;3.50;;
78508;SDS011;67802;50.846;7.958;2023-06-10T18:11:23;5.88;;;3.25;;
78508;SDS011;67802;50.846;7.958;2023-06-10T18:13:49;5.65;;;3.58;;
78508;SDS011;67802;50.846;7.958;2023-06-10T18:16:14;4.90;;;2.88;;
78508;SDS011;67802;50.846;7.958;2023-06-10T18:18:40;6.47;;;3.45;;
78508;SDS011;67802;50.846;7.958;2023-06-10T18:21:05;7.50;;;3.70;;
78508;SDS011;67802;50.846;7.958;2023-06-10T18:23:31;6.30;;;3.90;;
78508;SDS011;67802;50.846;7.958;2023-06-10T18:25:57;7.15;;;3.70;;
78508;SDS011;67802;50.846;7.958;2023-06-10T18:28:22;5.97;;;3.50;;
78508;SDS011;67802;50.846;7.958;2023-06-10T18:30:48;5.47;;;3.33;;
78508;SDS011;67802;50.846;7.958;2023-06-10T18:33:13;7.30;;;3.65;;
78508;SDS011;67802;50.846;7.958;2023-06-10T18:35:39;6.50;;;3.70;;
78508;SDS011;67802;50.846;7.958;2023-06-10T18:40:32;8.90;;;4.00;;
78508;SDS011;67802;50.846;7.958;2023-06-10T18:42:57;6.28;;;3.70;;
78508;SDS011;67802;50.846;7.958;2023-06-10T18:45:22;7.07;;;3.70;;
78508;SDS011;67802;50.846;7.958;2023-06-10T18:47:48;7.20;;;3.92;;
78508;SDS011;67802;50.846;7.958;2023-06-10T18:50:13;8.70;;;3.67;;
78508;SDS011;67802;50.846;7.958;2023-06-10T18:52:39;7.82;;;4.35;;
78508;SDS011;67802;50.846;7.958;2023-06-10T18:55:04;6.25;;;3.90;;
78508;SDS011;67802;50.846;7.958;2023-06-10T18:57:30;8.45;;;4.28;;
78508;SDS011;67802;50.846;7.958;2023-06-10T18:59:55;6.07;;;4.07;;
78508;SDS011;67802;50.846;7.958;2023-06-10T19:02:21;6.83;;;4.40;;
78508;SDS011;67802;50.846;7.958;2023-06-10T19:04:46;9.20;;;4.53;;
78508;SDS011;67802;50.846;7.958;2023-06-10T19:07:11;6.77;;;4.33;;
78508;SDS011;67802;50.846;7.958;2023-06-10T19:09:36;7.28;;;4.15;;
78508;SDS011;67802;50.846;7.958;2023-06-10T19:12:02;6.22;;;3.83;;
78508;SDS011;67802;50.846;7.958;2023-06-10T19:14:27;8.35;;;4.63;;
78508;SDS011;67802;50.846;7.958;2023-06-10T19:16:53;7.63;;;4.37;;
78508;SDS011;67802;50.846;7.958;2023-06-10T19:19:18;5.95;;;4.15;;
78508;SDS011;67802;50.846;7.958;2023-06-10T19:21:43;5.90;;;4.00;;
78508;SDS011;67802;50.846;7.958;2023-06-10T19:24:08;7.20;;;4.53;;
78508;SDS011;67802;50.846;7.958;2023-06-10T19:26:34;6.72;;;4.22;;
78508;SDS011;67802;50.846;7.958;2023-06-10T19:29:00;7.05;;;4.63;;
78508;SDS011;67802;50.846;7.958;2023-06-10T19:31:25;9.05;;;4.85;;
78508;SDS011;67802;50.846;7.958;2023-06-10T19:33:50;6.90;;;4.50;;
78508;SDS011;67802;50.846;7.958;2023-06-10T19:36:16;6.35;;;4.20;;
78508;SDS011;67802;50.846;7.958;2023-06-10T19:38:41;6.68;;;4.30;;
78508;SDS011;67802;50.846;7.958;2023-06-10T19:41:06;7.20;;;4.60;;
78508;SDS011;67802;50.846;7.958;2023-06-10T19:43:32;6.97;;;4.47;;
78508;SDS011;67802;50.846;7.958;2023-06-10T19:45:57;7.28;;;4.72;;
78508;SDS011;67802;50.846;7.958;2023-06-10T19:48:22;6.70;;;4.57;;
78508;SDS011;67802;50.846;7.958;2023-06-10T19:50:48;6.70;;;4.43;;
78508;SDS011;67802;50.846;7.958;2023-06-10T19:53:13;7.20;;;4.18;;
78508;SDS011;67802;50.846;7.958;2023-06-10T19:55:39;7.32;;;4.85;;
78508;SDS011;67802;50.846;7.958;2023-06-10T19:58:04;6.68;;;4.43;;
78508;SDS011;67802;50.846;7.958;2023-06-10T20:00:29;7.78;;;4.68;;
78508;SDS011;67802;50.846;7.958;2023-06-10T20:02:55;6.93;;;4.47;;
78508;SDS011;67802;50.846;7.958;2023-06-10T20:05:20;8.40;;;4.90;;
78508;SDS011;67802;50.846;7.958;2023-06-10T20:07:47;7.55;;;4.38;;
78508;SDS011;67802;50.846;7.958;2023-06-10T20:10:12;6.72;;;4.65;;
78508;SDS011;67802;50.846;7.958;2023-06-10T20:12:40;7.65;;;4.75;;
78508;SDS011;67802;50.846;7.958;2023-06-10T20:15:06;8.75;;;4.90;;
78508;SDS011;67802;50.846;7.958;2023-06-10T20:17:31;8.32;;;5.53;;
78508;SDS011;67802;50.846;7.958;2023-06-10T20:19:57;9.53;;;5.17;;
78508;SDS011;67802;50.846;7.958;2023-06-10T20:22:22;8.25;;;5.35;;
78508;SDS011;67802;50.846;7.958;2023-06-10T20:24:49;8.23;;;5.53;;
78508;SDS011;67802;50.846;7.958;2023-06-10T20:27:16;9.65;;;5.95;;
78508;SDS011;67802;50.846;7.958;2023-06-10T20:29:42;7.77;;;5.40;;
78508;SDS011;67802;50.846;7.958;2023-06-10T20:32:07;9.25;;;5.88;;
78508;SDS011;67802;50.846;7.958;2023-06-10T20:34:32;8.83;;;5.50;;
78508;SDS011;67802;50.846;7.958;2023-06-10T20:36:58;8.98;;;5.32;;
78508;SDS011;67802;50.846;7.958;2023-06-10T20:39:24;8.85;;;5.60;;
78508;SDS011;67802;50.846;7.958;2023-06-10T20:41:50;8.18;;;5.43;;
78508;SDS011;67802;50.846;7.958;2023-06-10T20:44:15;9.27;;;5.78;;
78508;SDS011;67802;50.846;7.958;2023-06-10T20:46:41;9.68;;;5.63;;
78508;SDS011;67802;50.846;7.958;2023-06-10T20:49:06;7.93;;;5.82;;
78508;SDS011;67802;50.846;7.958;2023-06-10T20:51:32;10.07;;;6.10;;
78508;SDS011;67802;50.846;7.958;2023-06-10T20:53:57;10.77;;;6.15;;
78508;SDS011;67802;50.846;7.958;2023-06-10T20:56:24;11.05;;;5.72;;
78508;SDS011;67802;50.846;7.958;2023-06-10T20:58:51;9.20;;;6.03;;
78508;SDS011;67802;50.846;7.958;2023-06-10T21:01:16;14.50;;;6.15;;
78508;SDS011;67802;50.846;7.958;2023-06-10T21:03:41;9.60;;;5.90;;
78508;SDS011;67802;50.846;7.958;2023-06-10T21:06:07;8.43;;;5.88;;
78508;SDS011;67802;50.846;7.958;2023-06-10T21:08:32;10.35;;;6.03;;
78508;SDS011;67802;50.846;7.958;2023-06-10T21:10:57;8.25;;;6.13;;
78508;SDS011;67802;50.846;7.958;2023-06-10T21:13:23;8.50;;;5.65;;
78508;SDS011;67802;50.846;7.958;2023-06-10T21:15:48;10.93;;;6.05;;
78508;SDS011;67802;50.846;7.958;2023-06-10T21:18:13;8.73;;;6.30;;
78508;SDS011;67802;50.846;7.958;2023-06-10T21:20:39;9.07;;;5.97;;
78508;SDS011;67802;50.846;7.958;2023-06-10T21:23:04;11.43;;;6.87;;
78508;SDS011;67802;50.846;7.958;2023-06-10T21:25:29;10.32;;;6.03;;
78508;SDS011;67802;50.846;7.958;2023-06-10T21:27:55;9.02;;;5.72;;
78508;SDS011;67802;50.846;7.958;2023-06-10T21:30:20;8.37;;;5.93;;
78508;SDS011;67802;50.846;7.958;2023-06-10T21:32:45;11.65;;;5.78;;
78508;SDS011;67802;50.846;7.958;2023-06-10T21:35:11;10.90;;;5.85;;
78508;SDS011;67802;50.846;7.958;2023-06-10T21:37:36;8.60;;;5.85;;
78508;SDS011;67802;50.846;7.958;2023-06-10T21:40:02;8.93;;;5.70;;
78508;SDS011;67802;50.846;7.958;2023-06-10T21:42:27;9.57;;;5.90;;
78508;SDS011;67802;50.846;7.958;2023-06-10T21:44:52;9.37;;;5.13;;
78508;SDS011;67802;50.846;7.958;2023-06-10T21:47:17;8.32;;;5.38;;
78508;SDS011;67802;50.846;7.958;2023-06-10T21:49:43;8.95;;;5.63;;
78508;SDS011;67802;50.846;7.958;2023-06-10T21:52:08;9.05;;;5.90;;
78508;SDS011;67802;50.846;7.958;2023-06-10T21:54:33;8.32;;;6.00;;
78508;SDS011;67802;50.846;7.958;2023-06-10T21:56:59;8.05;;;5.50;;
78508;SDS011;67802;50.846;7.958;2023-06-10T21:59:24;8.70;;;5.40;;
78508;SDS011;67802;50.846;7.958;2023-06-10T22:01:49;9.18;;;5.70;;
78508;SDS011;67802;50.846;7.958;2023-06-10T22:04:15;10.15;;;5.60;;
78508;SDS011;67802;50.846;7.958;2023-06-10T22:06:41;8.75;;;5.55;;
78508;SDS011;67802;50.846;7.958;2023-06-10T22:09:06;7.03;;;4.78;;
78508;SDS011;67802;50.846;7.958;2023-06-10T22:11:31;8.10;;;5.30;;
78508;SDS011;67802;50.846;7.958;2023-06-10T22:13:57;9.35;;;5.45;;
78508;SDS011;67802;50.846;7.958;2023-06-10T22:16:22;9.20;;;5.45;;
78508;SDS011;67802;50.846;7.958;2023-06-10T22:18:48;8.43;;;5.13;;
78508;SDS011;67802;50.846;7.958;2023-06-10T22:21:13;7.53;;;5.00;;
78508;SDS011;67802;50.846;7.958;2023-06-10T22:23:38;9.38;;;5.30;;
78508;SDS011;67802;50.846;7.958;2023-06-10T22:26:04;8.75;;;4.93;;
78508;SDS011;67802;50.846;7.958;2023-06-10T22:28:29;9.35;;;5.43;;
78508;SDS011;67802;50.846;7.958;2023-06-10T22:30:55;8.93;;;5.38;;
78508;SDS011;67802;50.846;7.958;2023-06-10T22:33:20;9.50;;;5.07;;
78508;SDS011;67802;50.846;7.958;2023-06-10T22:35:46;8.82;;;5.15;;
78508;SDS011;67802;50.846;7.958;2023-06-10T22:38:11;8.48;;;5.72;;
78508;SDS011;67802;50.846;7.958;2023-06-10T22:40:36;8.30;;;5.18;;
78508;SDS011;67802;50.846;7.958;2023-06-10T22:43:02;7.88;;;5.40;;
78508;SDS011;67802;50.846;7.958;2023-06-10T22:45:27;7.97;;;4.95;;
78508;SDS011;67802;50.846;7.958;2023-06-10T22:47:53;8.13;;;4.82;;
78508;SDS011;67802;50.846;7.958;2023-06-10T22:50:18;7.45;;;4.82;;
78508;SDS011;67802;50.846;7.958;2023-06-10T22:52:44;7.18;;;4.65;;
78508;SDS011;67802;50.846;7.958;2023-06-10T22:55:09;7.97;;;4.93;;
78508;SDS011;67802;50.846;7.958;2023-06-10T22:57:35;8.60;;;5.30;;
78508;SDS011;67802;50.846;7.958;2023-06-10T23:00:00;8.55;;;5.03;;
78508;SDS011;67802;50.846;7.958;2023-06-10T23:02:26;6.72;;;4.82;;
78508;SDS011;67802;50.846;7.958;2023-06-10T23:04:52;7.57;;;4.85;;
78508;SDS011;67802;50.846;7.958;2023-06-10T23:07:17;9.73;;;5.03;;
78508;SDS011;67802;50.846;7.958;2023-06-10T23:09:45;6.90;;;4.55;;
78508;SDS011;67802;50.846;7.958;2023-06-10T23:12:10;7.82;;;4.60;;
78508;SDS011;67802;50.846;7.958;2023-06-10T23:14:36;6.82;;;4.70;;
78508;SDS011;67802;50.846;7.958;2023-06-10T23:17:01;8.20;;;5.00;;
78508;SDS011;67802;50.846;7.958;2023-06-10T23:19:27;7.93;;;4.88;;
78508;SDS011;67802;50.846;7.958;2023-06-10T23:21:54;8.18;;;4.63;;
78508;SDS011;67802;50.846;7.958;2023-06-10T23:24:24;9.20;;;4.80;;
78508;SDS011;67802;50.846;7.958;2023-06-10T23:26:58;9.15;;;5.07;;
78508;SDS011;67802;50.846;7.958;2023-06-10T23:29:25;7.90;;;4.80;;
78508;SDS011;67802;50.846;7.958;2023-06-10T23:31:51;8.98;;;4.85;;
78508;SDS011;67802;50.846;7.958;2023-06-10T23:34:16;7.68;;;4.78;;
78508;SDS011;67802;50.846;7.958;2023-06-10T23:36:42;7.80;;;4.88;;
78508;SDS011;67802;50.846;7.958;2023-06-10T23:39:07;7.63;;;4.93;;
78508;SDS011;67802;50.846;7.958;2023-06-10T23:41:33;6.68;;;4.60;;
78508;SDS011;67802;50.846;7.958;2023-06-10T23:43:59;7.90;;;5.18;;
78508;SDS011;67802;50.846;7.958;2023-06-10T23:46:25;8.32;;;4.85;;
